Time;durP1;ratioP1;P1;durP2;ratioP2;P2;SDS_P1;SDS_P2;PMS_P1;PMS_P2;Temp;Humidity;BMP_temperature;BMP_pressure;BME280_temperature;BME280_humidity;BME280_pressure;Samples;Min_cycle;Max_cycle;Signal;HPM_P1;HPM_P2
2021/12/10 00:00:26;;;;;;;97.83;48.83;;;;;;;0.48;75.59;99026.84;6163295;22;97523;-79
2021/12/10 00:02:52;;;;;;;98.27;48.93;;;;;;;0.55;75.35;99028.47;6162454;22;99957;-79
2021/12/10 00:05:25;;;;;;;94.30;48.60;;;;;;;0.61;74.86;99033.56;6136460;22;96661;-80
2021/12/10 00:07:51;;;;;;;103.27;49.97;;;;;;;0.63;74.66;99038.69;6163077;22;96803;-80
2021/12/10 00:10:31;;;;;;;97.40;47.50;;;;;;;0.64;74.47;99041.28;6135554;22;101664;-80
2021/12/10 00:12:59;;;;;;;101.00;51.37;;;;;;;0.71;74.20;99028.25;6169322;22;101522;-80
2021/12/10 00:15:27;;;;;;;109.90;54.60;;;;;;;0.75;73.73;99009.25;6194810;22;96853;-80
2021/12/10 00:17:54;;;;;;;104.33;52.47;;;;;;;0.66;74.17;98997.31;6166513;22;96733;-80
2021/12/10 00:20:24;;;;;;;110.50;55.03;;;;;;;0.62;74.27;98985.34;6163759;22;100224;-80
2021/12/10 00:22:57;;;;;;;111.03;55.50;;;;;;;0.46;74.40;98989.88;6192713;22;96775;-80
2021/12/10 00:25:33;;;;;;;107.63;50.73;;;;;;;0.34;75.43;98984.88;6144111;22;97051;-81
2021/12/10 00:27:59;;;;;;;116.60;56.67;;;;;;;0.32;75.19;98977.19;6169666;22;96873;-80
2021/12/10 00:30:31;;;;;;;120.47;55.60;;;;;;;0.40;74.99;98969.31;6132649;22;100374;-80
2021/12/10 00:33:13;;;;;;;109.70;53.17;;;;;;;0.30;75.49;98976.34;6134442;22;101669;-80
2021/12/10 00:35:40;;;;;;;113.77;53.33;;;;;;;0.31;75.09;98975.44;6136198;22;96971;-81
2021/12/10 00:38:06;;;;;;;111.77;55.53;;;;;;;0.30;75.36;98985.81;6157727;22;96741;-79
2021/12/10 00:40:33;;;;;;;114.27;53.97;;;;;;;0.32;75.42;98992.66;6157252;22;96901;-79
2021/12/10 00:42:58;;;;;;;115.87;54.63;;;;;;;0.21;75.84;98981.63;6159142;22;98053;-79
2021/12/10 00:45:26;;;;;;;112.13;54.53;;;;;;;0.24;75.50;98978.16;6158852;22;96612;-80
2021/12/10 00:47:52;;;;;;;113.90;54.53;;;;;;;0.24;75.49;98975.56;6133987;22;97062;-79
2021/12/10 00:50:21;;;;;;;103.07;50.53;;;;;;;0.19;75.83;98967.88;6157533;22;101422;-80
2021/12/10 00:52:47;;;;;;;110.33;52.20;;;;;;;0.21;75.66;98956.66;6157336;22;102039;-79
2021/12/10 00:55:13;;;;;;;110.37;51.30;;;;;;;0.14;76.15;98942.13;6157773;22;96524;-80
2021/12/10 00:57:39;;;;;;;110.57;53.10;;;;;;;0.18;76.20;98937.78;6131754;22;97042;-80
2021/12/10 01:00:09;;;;;;;113.13;53.50;;;;;;;0.30;75.86;98940.19;6132983;22;100730;-80
2021/12/10 01:02:34;;;;;;;112.90;54.17;;;;;;;0.23;75.95;98946.31;6133162;22;100747;-79
2021/12/10 01:05:00;;;;;;;115.20;54.60;;;;;;;0.21;75.94;98937.75;6134363;22;96993;-79
2021/12/10 01:07:29;;;;;;;115.20;54.80;;;;;;;0.34;76.10;98928.09;6158045;22;97292;-80
2021/12/10 01:09:57;;;;;;;108.73;52.40;;;;;;;0.26;75.62;98924.75;6133033;22;99560;-79
2021/12/10 01:12:29;;;;;;;106.60;51.37;;;;;;;0.25;75.61;98925.66;6156368;22;101282;-79
2021/12/10 01:26:25;;;;;;;121.37;54.37;;;;;;;0.41;74.71;98942.63;6161314;22;97300;-79
2021/12/10 01:28:54;;;;;;;124.33;57.30;;;;;;;0.38;74.83;98938.34;6139138;22;97305;-78
2021/12/10 01:31:20;;;;;;;128.43;58.27;;;;;;;0.23;75.49;98928.22;6161733;22;99687;-79
2021/12/10 01:33:48;;;;;;;131.40;61.27;;;;;;;0.13;75.46;98924.94;6138005;22;100734;-79
2021/12/10 01:36:14;;;;;;;112.63;53.33;;;;;;;0.08;76.13;98918.13;6185557;22;96608;-79
2021/12/10 01:38:42;;;;;;;120.37;57.00;;;;;;;0.13;75.87;98906.03;6163391;22;96819;-79
2021/12/10 01:41:11;;;;;;;128.07;57.47;;;;;;;0.21;75.37;98902.47;6160789;22;97379;-79
2021/12/10 01:43:39;;;;;;;121.33;56.20;;;;;;;0.16;76.56;98893.06;6161014;22;101126;-79
2021/12/10 01:46:18;;;;;;;126.20;55.60;;;;;;;0.20;75.66;98893.03;6162944;22;96630;-79
2021/12/10 01:48:47;;;;;;;122.87;55.07;;;;;;;0.14;75.65;98890.50;6163904;22;97185;-79
2021/12/10 01:51:16;;;;;;;113.57;55.13;;;;;;;0.17;76.14;98894.78;6160973;22;101801;-79
2021/12/10 01:53:44;;;;;;;116.87;56.03;;;;;;;0.22;76.41;98893.84;6163141;22;100808;-79
2021/12/10 01:56:13;;;;;;;125.80;56.93;;;;;;;0.28;75.48;98889.47;6160928;22;97172;-79
2021/12/10 01:58:40;;;;;;;120.90;56.70;;;;;;;0.29;75.29;98889.44;6139328;22;96768;-79
2021/12/10 02:01:09;;;;;;;123.00;55.77;;;;;;;0.35;75.40;98881.63;6136957;22;101113;-79
2021/12/10 02:03:36;;;;;;;114.00;53.67;;;;;;;0.34;75.22;98890.22;6163928;22;98150;-79
2021/12/10 02:06:02;;;;;;;116.53;52.80;;;;;;;0.32;75.62;98891.09;6137288;22;96705;-79
2021/12/10 02:08:28;;;;;;;111.10;53.20;;;;;;;0.31;75.67;98898.00;6138261;22;97315;-79
2021/12/10 02:10:53;;;;;;;114.20;56.10;;;;;;;0.42;75.25;98906.44;6161562;22;101264;-78
2021/12/10 02:13:19;;;;;;;118.13;52.67;;;;;;;0.42;75.02;98892.69;6163921;22;97714;-79
2021/12/10 02:15:44;;;;;;;108.63;52.40;;;;;;;0.40;74.99;98887.53;6186989;22;97200;-79
2021/12/10 02:18:12;;;;;;;115.93;53.63;;;;;;;0.43;74.75;98887.47;6162588;22;97420;-80
2021/12/10 02:20:49;;;;;;;111.80;52.70;;;;;;;0.42;74.51;98872.88;6135854;22;101209;-79
2021/12/10 02:23:14;;;;;;;113.43;54.77;;;;;;;0.52;74.43;98864.97;6137392;22;101304;-79
2021/12/10 02:25:40;;;;;;;115.97;55.67;;;;;;;0.41;74.52;98863.44;6137127;22;96998;-79
2021/12/10 02:28:08;;;;;;;125.13;56.70;;;;;;;0.44;74.43;98867.69;6136269;22;97239;-78
2021/12/10 02:30:34;;;;;;;122.67;56.53;;;;;;;0.41;74.78;98857.44;6156259;22;97965;-79
2021/12/10 02:33:00;;;;;;;112.87;54.50;;;;;;;0.39;74.82;98859.16;6157335;22;101368;-78
2021/12/10 02:35:28;;;;;;;118.23;54.97;;;;;;;0.32;74.96;98861.00;6130262;22;97184;-79
2021/12/10 02:37:53;;;;;;;111.83;54.43;;;;;;;0.32;75.46;98861.00;6158024;22;96780;-78
2021/12/10 02:40:20;;;;;;;112.57;51.40;;;;;;;0.37;75.48;98873.81;6132050;22;100845;-79
2021/12/10 02:42:48;;;;;;;117.73;54.47;;;;;;;0.38;74.95;98891.88;6158310;22;101359;-79
2021/12/10 02:45:18;;;;;;;122.33;57.13;;;;;;;0.58;73.68;98886.41;6132780;22;96606;-79
2021/12/10 02:47:45;;;;;;;122.20;57.90;;;;;;;0.48;74.35;98879.69;6158493;22;96773;-79
2021/12/10 02:50:13;;;;;;;127.03;58.47;;;;;;;0.32;74.51;98881.66;6157699;22;97921;-79
2021/12/10 02:52:39;;;;;;;125.30;59.43;;;;;;;0.26;75.50;98876.56;6133242;22;100878;-79
2021/12/10 02:55:10;;;;;;;126.07;58.03;;;;;;;0.17;75.30;98877.56;6184923;22;97267;-78
2021/12/10 02:57:38;;;;;;;132.90;61.00;;;;;;;0.15;75.63;98866.44;6133077;22;96685;-79
2021/12/10 03:00:09;;;;;;;122.70;57.90;;;;;;;0.14;76.25;98869.00;6131324;22;101345;-78
2021/12/10 03:02:35;;;;;;;126.20;57.55;;;;;;;0.26;75.71;98876.56;6131786;22;101408;-79
2021/12/10 03:05:01;;;;;;;140.73;63.17;;;;;;;0.31;75.10;98879.09;6158750;22;96791;-78
2021/12/10 03:07:27;;;;;;;128.30;61.77;;;;;;;0.28;75.22;98869.66;6157555;22;97084;-79
2021/12/10 03:09:55;;;;;;;129.33;61.80;;;;;;;0.13;75.57;98864.75;6159077;22;101705;-79
2021/12/10 03:12:21;;;;;;;125.93;60.07;;;;;;;0.13;75.72;98867.31;6158102;22;97749;-78
2021/12/10 03:14:52;;;;;;;137.97;64.90;;;;;;;0.21;75.29;98868.06;6134935;22;97045;-78
2021/12/10 03:17:22;;;;;;;123.63;58.93;;;;;;;0.03;76.04;98853.72;6133525;22;97055;-79
2021/12/10 03:19:49;;;;;;;129.43;62.10;;;;;;;0.06;75.74;98840.75;6158590;22;97445;-78
2021/12/10 03:22:14;;;;;;;135.73;61.93;;;;;;;0.10;75.73;98844.16;6130254;22;101200;-79
2021/12/10 03:24:40;;;;;;;120.47;57.60;;;;;;;0.00;75.99;98848.59;6160166;22;96814;-78
2021/12/10 03:27:08;;;;;;;127.23;59.23;;;;;;;0.08;76.43;98857.06;6183889;22;96793;-78
2021/12/10 03:29:36;;;;;;;130.57;58.07;;;;;;;0.17;75.66;98858.66;6131196;22;100988;-79
2021/12/10 03:32:05;;;;;;;134.30;59.77;;;;;;;0.32;74.66;98852.38;6133224;22;100589;-78
2021/12/10 03:34:32;;;;;;;128.47;59.40;;;;;;;0.21;74.82;98857.75;6185040;22;96967;-78
2021/12/10 03:36:58;;;;;;;128.87;63.23;;;;;;;0.16;75.51;98854.38;6134752;22;96921;-78
2021/12/10 03:39:25;;;;;;;142.47;66.27;;;;;;;0.26;75.19;98849.91;6159839;22;101579;-78
2021/12/10 03:41:53;;;;;;;140.83;63.87;;;;;;;0.21;75.15;98845.69;6159204;22;101281;-78
2021/12/10 03:44:18;;;;;;;147.20;67.80;;;;;;;0.24;74.35;98837.03;6183896;22;97120;-78
2021/12/10 03:46:45;;;;;;;146.33;63.40;;;;;;;0.10;75.21;98826.94;6159370;22;97002;-78
2021/12/10 03:49:11;;;;;;;138.97;64.57;;;;;;;0.29;74.39;98827.50;6162453;22;97280;-78
2021/12/10 03:51:37;;;;;;;150.33;66.50;;;;;;;0.16;75.12;98825.97;6163507;22;97846;-78
2021/12/10 03:54:05;;;;;;;141.37;67.30;;;;;;;0.19;75.29;98844.00;6138222;22;96882;-78
2021/12/10 03:56:32;;;;;;;138.67;63.77;;;;;;;0.13;75.44;98841.50;6158009;22;96801;-78
2021/12/10 03:59:00;;;;;;;135.17;63.63;;;;;;;-0.01;75.45;98827.09;6183755;22;97397;-78
2021/12/10 04:01:29;;;;;;;136.53;61.63;;;;;;;0.09;75.49;98839.84;6131556;22;101352;-78
2021/12/10 04:03:57;;;;;;;135.73;61.63;;;;;;;0.01;75.88;98824.50;6134566;22;96572;-78
2021/12/10 04:06:23;;;;;;;128.00;60.17;;;;;;;-0.05;76.14;98807.38;6183771;22;97129;-78
2021/12/10 04:08:49;;;;;;;126.37;58.63;;;;;;;0.01;76.29;98814.16;6157890;22;101009;-78
2021/12/10 04:11:16;;;;;;;135.00;60.93;;;;;;;0.11;75.64;98801.97;6156173;22;97235;-78
2021/12/10 04:13:47;;;;;;;132.67;61.17;;;;;;;0.07;75.64;98797.75;6134015;22;96598;-78
2021/12/10 04:16:13;;;;;;;143.43;65.00;;;;;;;0.06;75.78;98794.31;6158128;22;97055;-78
2021/12/10 04:18:39;;;;;;;127.13;59.87;;;;;;;0.26;75.13;98799.13;6157605;22;98468;-78
2021/12/10 04:21:06;;;;;;;135.27;59.43;;;;;;;0.15;75.08;98793.31;6157214;22;100281;-78
2021/12/10 04:23:32;;;;;;;120.00;56.43;;;;;;;0.15;75.33;98795.91;6158618;22;96965;-78
2021/12/10 04:25:58;;;;;;;125.17;58.50;;;;;;;0.11;75.07;98797.66;6158132;22;97119;-78
2021/12/10 04:28:24;;;;;;;130.37;59.60;;;;;;;0.21;74.61;98782.91;6132569;22;101106;-79
2021/12/10 04:30:50;;;;;;;121.93;60.40;;;;;;;0.23;75.02;98791.44;6158608;22;101334;-78
2021/12/10 04:33:21;;;;;;;121.43;58.13;;;;;;;0.27;74.53;98787.09;6159108;22;96551;-79
2021/12/10 04:35:47;;;;;;;128.27;58.83;;;;;;;0.33;75.10;98794.75;6135266;22;97064;-78
2021/12/10 04:38:14;;;;;;;124.47;59.03;;;;;;;0.33;74.70;98792.16;6159416;22;100831;-78
2021/12/10 04:40:40;;;;;;;127.50;60.53;;;;;;;0.33;75.06;98792.16;6133045;22;101955;-78
2021/12/10 04:43:06;;;;;;;137.67;62.50;;;;;;;0.25;74.60;98801.75;6135264;22;96644;-78
2021/12/10 04:45:32;;;;;;;127.17;59.80;;;;;;;0.35;74.33;98793.84;6158689;22;96981;-78
2021/12/10 04:47:58;;;;;;;123.47;59.57;;;;;;;0.29;75.21;98788.78;6134108;22;100704;-77
2021/12/10 04:50:26;;;;;;;135.37;63.67;;;;;;;0.27;74.43;98795.69;6135454;22;101604;-80
2021/12/10 04:52:51;;;;;;;137.77;62.57;;;;;;;0.14;74.98;98795.03;6140663;22;96968;-79
2021/12/10 04:55:18;;;;;;;126.43;57.20;;;;;;;0.04;75.68;98790.91;6192540;22;97121;-79
2021/12/10 04:57:45;;;;;;;126.47;61.03;;;;;;;0.10;75.38;98782.22;6159267;22;96912;-78
2021/12/10 05:00:15;;;;;;;124.07;58.03;;;;;;;0.18;75.63;98785.53;6159157;22;101785;-83
2021/12/10 05:02:41;;;;;;;130.97;58.13;;;;;;;0.29;75.14;98791.38;6137569;22;96643;-79
2021/12/10 05:05:08;;;;;;;118.90;59.53;;;;;;;0.29;75.24;98783.63;6162621;22;96921;-79
2021/12/10 05:07:36;;;;;;;121.80;58.03;;;;;;;0.23;75.03;98783.69;6157086;22;100589;-78
2021/12/10 05:10:05;;;;;;;122.97;57.53;;;;;;;0.20;74.90;98778.59;6155503;22;97346;-78
2021/12/10 05:12:31;;;;;;;129.77;58.27;;;;;;;0.21;74.90;98783.75;6154623;22;97258;-78
2021/12/10 05:15:00;;;;;;;125.27;59.50;;;;;;;0.17;75.22;98789.81;6130861;22;97043;-78
2021/12/10 05:17:30;;;;;;;111.97;55.37;;;;;;;0.22;75.29;98785.44;6153484;22;101360;-78
2021/12/10 05:19:59;;;;;;;120.30;58.40;;;;;;;0.31;74.95;98786.16;6155277;22;98241;-78
2021/12/10 05:22:25;;;;;;;122.77;56.67;;;;;;;0.38;74.66;98772.28;6179785;22;97054;-78
2021/12/10 05:24:51;;;;;;;121.77;59.20;;;;;;;0.40;74.64;98776.53;6157049;22;96991;-78
2021/12/10 05:27:16;;;;;;;119.27;57.30;;;;;;;0.42;74.31;98785.09;6129162;22;101159;-79
2021/12/10 05:29:42;;;;;;;119.00;57.23;;;;;;;0.36;74.33;98779.19;6193686;22;97876;-78
2021/12/10 05:32:08;;;;;;;117.10;57.07;;;;;;;0.35;74.19;98782.63;6158865;22;97338;-78
2021/12/10 05:34:36;;;;;;;116.17;56.57;;;;;;;0.32;75.08;98777.53;6186360;22;96574;-78
2021/12/10 05:37:02;;;;;;;115.70;57.50;;;;;;;0.43;74.05;98780.78;6185848;22;97575;-78
2021/12/10 05:39:28;;;;;;;135.80;60.10;;;;;;;0.35;74.06;98782.63;6159669;22;97756;-78
2021/12/10 05:41:54;;;;;;;120.00;58.93;;;;;;;0.33;74.26;98777.53;6160170;22;97055;-78
2021/12/10 05:44:20;;;;;;;119.57;60.07;;;;;;;0.29;74.45;98775.88;6134801;22;97045;-78
2021/12/10 05:46:45;;;;;;;139.87;61.90;;;;;;;0.35;74.44;98769.72;6184453;22;97514;-78
2021/12/10 05:49:11;;;;;;;122.73;59.57;;;;;;;0.31;74.68;98788.75;6160871;22;100593;-78
2021/12/10 05:51:37;;;;;;;114.80;55.97;;;;;;;0.13;75.01;98777.84;6157780;22;97092;-78
2021/12/10 05:54:03;;;;;;;125.43;59.90;;;;;;;0.31;74.23;98779.25;6160156;22;97137;-78
2021/12/10 05:56:29;;;;;;;121.40;56.20;;;;;;;0.26;74.65;98778.47;6158580;22;99965;-78
2021/12/10 05:58:55;;;;;;;119.47;55.93;;;;;;;0.24;74.30;98776.84;6160468;22;101006;-78
2021/12/10 06:01:21;;;;;;;125.77;57.77;;;;;;;0.26;74.90;98782.81;6158720;22;96891;-78
2021/12/10 06:03:54;;;;;;;113.97;57.20;;;;;;;0.29;74.56;98775.00;6135648;22;96993;-78
2021/12/10 06:06:27;;;;;;;114.57;55.17;;;;;;;0.35;74.17;98786.09;6159547;22;101255;-78
2021/12/10 06:08:55;;;;;;;113.57;55.97;;;;;;;0.35;73.88;98780.94;6161664;22;100718;-78
2021/12/10 06:11:22;;;;;;;121.73;55.80;;;;;;;0.37;73.83;98784.31;6159908;22;96743;-78
2021/12/10 06:13:48;;;;;;;113.40;56.73;;;;;;;0.37;73.45;98779.16;6136470;22;96765;-78
2021/12/10 06:16:15;;;;;;;114.77;54.43;;;;;;;0.42;73.57;98779.09;6159002;22;101865;-78
2021/12/10 06:18:41;;;;;;;114.17;55.70;;;;;;;0.45;73.72;98784.19;6159517;22;97802;-78
2021/12/10 06:21:07;;;;;;;115.40;54.77;;;;;;;0.33;73.77;98779.25;6159532;22;97233;-78
2021/12/10 06:23:33;;;;;;;114.17;55.90;;;;;;;0.34;74.00;98786.09;6159642;22;97173;-78
2021/12/10 06:25:59;;;;;;;111.67;56.20;;;;;;;0.40;74.20;98788.59;6158817;22;101523;-78
2021/12/10 06:28:24;;;;;;;110.77;54.07;;;;;;;0.36;74.21;98782.63;6159214;22;100827;-78
2021/12/10 06:30:52;;;;;;;112.90;54.37;;;;;;;0.37;73.91;98780.88;6154633;22;96618;-78
2021/12/10 06:33:23;;;;;;;117.83;54.10;;;;;;;0.40;73.59;98786.00;6131813;22;96943;-79
2021/12/10 06:35:51;;;;;;;114.57;55.77;;;;;;;0.47;73.56;98791.91;6155802;22;101295;-78
2021/12/10 06:38:17;;;;;;;118.10;56.10;;;;;;;0.48;73.53;98791.88;6156165;22;97391;-79
2021/12/10 06:40:44;;;;;;;114.83;55.00;;;;;;;0.37;73.85;98796.38;6128268;22;96595;-78
2021/12/10 06:43:14;;;;;;;113.47;56.93;;;;;;;0.36;74.02;98789.53;6129389;22;97372;-78
2021/12/10 06:45:40;;;;;;;123.30;60.00;;;;;;;0.33;73.58;98782.69;6128207;22;101367;-78
2021/12/10 06:48:08;;;;;;;124.97;57.20;;;;;;;0.35;73.20;98780.94;6154383;22;99972;-80
2021/12/10 06:50:38;;;;;;;119.27;57.37;;;;;;;0.35;73.73;98773.19;6152792;22;97147;-79
2021/12/10 06:53:03;;;;;;;121.73;57.73;;;;;;;0.35;73.35;98791.25;6129584;22;96750;-78
2021/12/10 06:55:30;;;;;;;133.87;61.40;;;;;;;0.43;73.81;98785.94;6152263;22;100949;-78
2021/12/10 06:57:56;;;;;;;123.43;55.87;;;;;;;0.34;73.52;98783.53;6180474;22;97358;-78
2021/12/10 07:00:44;;;;;;;123.47;58.13;;;;;;;0.35;73.66;98785.22;6155079;22;97096;-78
2021/12/10 07:03:17;;;;;;;122.80;59.60;;;;;;;0.39;73.19;98782.56;6156996;22;96567;-78
2021/12/10 07:05:43;;;;;;;137.37;60.77;;;;;;;0.36;73.42;98786.94;6127799;22;101111;-78
2021/12/10 07:08:08;;;;;;;126.37;60.83;;;;;;;0.37;72.72;98791.22;6156048;22;101329;-78
2021/12/10 07:10:34;;;;;;;123.03;61.70;;;;;;;0.48;72.24;98798.78;6154035;22;97214;-79
2021/12/10 07:13:03;;;;;;;130.03;59.97;;;;;;;0.44;72.68;98790.25;6156763;22;97171;-78
2021/12/10 07:15:28;;;;;;;137.70;63.70;;;;;;;0.45;72.57;98799.69;6154362;22;98070;-78
2021/12/10 07:17:54;;;;;;;129.67;61.90;;;;;;;0.46;72.43;98798.78;6128866;22;101335;-78
2021/12/10 07:20:23;;;;;;;136.80;61.67;;;;;;;0.45;72.02;98789.34;6129546;22;97021;-78
2021/12/10 07:22:49;;;;;;;129.57;63.17;;;;;;;0.44;72.47;98803.16;6155773;22;97203;-78
2021/12/10 07:25:15;;;;;;;129.20;62.10;;;;;;;0.45;71.09;98797.94;6154125;22;101121;-79
2021/12/10 07:27:41;;;;;;;138.80;64.40;;;;;;;0.32;72.17;98796.47;6129130;22;101181;-79
2021/12/10 07:30:07;;;;;;;128.67;60.50;;;;;;;0.18;72.58;98806.19;6179802;22;96729;-78
2021/12/10 07:32:34;;;;;;;127.73;59.83;;;;;;;0.20;72.87;98809.56;6128387;22;96807;-79
2021/12/10 07:35:00;;;;;;;137.23;63.50;;;;;;;0.30;72.22;98799.97;6130010;22;101070;-78
2021/12/10 07:37:25;;;;;;;122.73;58.63;;;;;;;0.27;71.92;98797.44;6153648;22;97338;-78
2021/12/10 07:39:51;;;;;;;126.10;59.57;;;;;;;0.30;71.70;98794.78;6156840;22;96805;-78
2021/12/10 07:42:17;;;;;;;119.37;56.93;;;;;;;0.35;71.60;98786.09;6155593;22;97200;-78
2021/12/10 07:44:43;;;;;;;128.33;59.73;;;;;;;0.39;71.67;98785.16;6161722;22;101432;-78
2021/12/10 07:47:12;;;;;;;133.43;62.83;;;;;;;0.46;71.16;98798.78;6163021;22;97283;-80
2021/12/10 07:49:39;;;;;;;122.10;59.53;;;;;;;0.52;70.79;98798.69;6162999;22;97033;-78
2021/12/10 07:52:07;;;;;;;119.67;59.30;;;;;;;0.48;71.08;98788.47;6138653;22;96600;-80
2021/12/10 07:59:57;;;;;;;121.68;61.75;;;;;;;0.49;70.55;98779.81;6177809;22;98737;-82
2021/12/10 08:21:45;;;;;;;107.97;55.07;;;;;;;0.29;71.65;98783.63;6204905;22;99019;-81
2021/12/10 08:27:08;;;;;;;108.53;51.83;;;;;;;0.52;70.87;98788.34;6236429;22;100583;-82
2021/12/10 08:34:59;;;;;;;103.00;51.95;;;;;;;0.96;69.18;98793.56;6142494;22;99155;-79
2021/12/10 08:45:52;;;;;;;109.07;52.60;;;;;;;0.93;68.65;98786.72;6170284;22;99079;-80
2021/12/10 08:51:27;;;;;;;105.70;50.80;;;;;;;0.76;70.34;98805.16;6140705;22;99546;31
2021/12/10 08:53:53;;;;;;;105.50;52.13;;;;;;;0.77;70.07;98803.44;6118503;22;98718;-79
2021/12/10 08:56:19;;;;;;;99.07;49.33;;;;;;;0.85;69.71;98792.06;6160609;22;97266;-78
2021/12/10 08:58:45;;;;;;;100.53;50.83;;;;;;;0.95;69.30;98777.22;6183882;22;97166;-79
2021/12/10 09:01:20;;;;;;;102.27;49.70;;;;;;;1.03;69.23;98779.69;6158967;22;98157;-79
2021/12/10 09:03:51;;;;;;;104.23;51.23;;;;;;;1.08;69.21;98783.88;6184973;22;96547;-78
2021/12/10 09:06:19;;;;;;;103.67;50.00;;;;;;;1.22;68.04;98787.88;6133857;22;96905;-79
2021/12/10 09:08:44;;;;;;;102.80;50.20;;;;;;;1.21;68.99;98778.44;6157082;22;98145;-79
2021/12/10 09:11:11;;;;;;;102.60;51.17;;;;;;;1.36;68.29;98786.72;6128799;22;101382;-79
2021/12/10 09:13:37;;;;;;;93.13;48.33;;;;;;;1.51;68.29;98782.09;6157160;22;97169;-79
2021/12/10 09:16:07;;;;;;;90.97;47.93;;;;;;;1.47;67.83;98775.31;6174174;22;97007;-81
2021/12/10 09:18:38;;;;;;;93.50;49.23;;;;;;;1.46;67.96;98776.19;6179027;22;97914;-81
2021/12/10 09:21:04;;;;;;;94.37;47.93;;;;;;;1.44;68.05;98776.22;6205044;22;97400;-81
2021/12/10 09:23:30;;;;;;;97.37;48.20;;;;;;;1.56;68.00;98762.16;6206578;22;96538;-81
2021/12/10 09:25:59;;;;;;;90.60;45.37;;;;;;;1.65;68.20;98759.38;6179042;22;97152;-81
2021/12/10 09:28:26;;;;;;;95.00;48.00;;;;;;;1.78;67.68;98758.22;6209900;22;96638;-82
2021/12/10 09:30:56;;;;;;;95.13;51.77;;;;;;;1.86;66.88;98750.25;6185794;22;99265;-80
2021/12/10 09:33:22;;;;;;;104.87;50.47;;;;;;;1.73;67.88;98761.78;6181530;22;96518;-82
2021/12/10 09:35:48;;;;;;;83.97;44.00;;;;;;;1.79;67.45;98767.66;6182652;22;96503;-81
2021/12/10 09:38:15;;;;;;;88.73;47.20;;;;;;;1.70;67.55;98757.53;6155396;22;100245;-80
2021/12/10 09:40:43;;;;;;;84.83;38.67;;;;;;;1.75;67.59;98757.44;6208105;22;98901;-81
2021/12/10 09:43:10;;;;;;;74.50;37.40;;;;;;;1.79;68.12;98764.25;6183219;22;96534;-81
2021/12/10 09:45:39;;;;;;;76.93;39.00;;;;;;;1.81;67.86;98758.16;6150082;22;97095;-80
2021/12/10 09:48:07;;;;;;;65.47;36.37;;;;;;;1.86;68.08;98764.94;6170209;22;100520;-81
2021/12/10 09:50:41;;;;;;;75.73;38.37;;;;;;;1.95;67.71;98764.72;6193790;22;97885;-79
2021/12/10 09:53:08;;;;;;;78.10;38.83;;;;;;;1.95;67.76;98765.59;6169349;22;96987;-79
2021/12/10 09:55:34;;;;;;;70.07;38.83;;;;;;;1.97;68.07;98768.13;6170336;22;96700;-80
2021/12/10 09:58:00;;;;;;;72.73;39.60;;;;;;;1.94;68.00;98763.03;6193328;22;97371;-81
2021/12/10 10:00:34;;;;;;;81.00;43.97;;;;;;;2.09;67.98;98760.06;6188669;22;97461;-80
2021/12/10 10:03:00;;;;;;;82.27;42.53;;;;;;;2.01;67.99;98756.84;6165974;22;97694;-80
2021/12/10 10:05:27;;;;;;;74.70;41.07;;;;;;;2.08;67.80;98753.19;6196877;22;96635;-80
2021/12/10 10:07:58;;;;;;;82.43;41.17;;;;;;;2.10;67.61;98754.00;6167601;22;97039;-79
2021/12/10 10:10:26;;;;;;;75.28;42.35;;;;;;;2.27;67.36;98753.59;6192624;22;97110;-80
2021/12/10 10:12:53;;;;;;;82.63;43.47;;;;;;;2.33;67.41;98753.44;6166563;22;97274;-81
2021/12/10 10:15:28;;;;;;;78.00;40.87;;;;;;;2.26;67.11;98755.31;6166299;22;97041;-81
2021/12/10 10:17:56;;;;;;;84.27;43.67;;;;;;;2.33;67.25;98758.63;6142458;22;101869;-79
2021/12/10 10:20:22;;;;;;;83.20;42.07;;;;;;;2.34;67.60;98757.72;6193223;22;97460;-79
2021/12/10 10:22:48;;;;;;;76.90;39.13;;;;;;;2.24;68.04;98751.06;6167647;22;97108;-79
2021/12/10 10:25:15;;;;;;;77.77;39.43;;;;;;;2.20;67.54;98752.88;6166283;22;97233;-79
2021/12/10 10:27:41;;;;;;;72.27;39.50;;;;;;;2.25;67.59;98748.44;6165647;22;101446;-80
2021/12/10 10:30:11;;;;;;;72.87;38.37;;;;;;;2.34;67.97;98752.53;6169285;22;101624;-80
2021/12/10 10:32:36;;;;;;;67.83;38.30;;;;;;;2.47;67.00;98740.09;6141836;22;96525;-79
2021/12/10 10:35:09;;;;;;;68.90;36.27;;;;;;;2.62;66.80;98737.13;6169083;22;97168;-80
2021/12/10 10:37:35;;;;;;;68.03;36.77;;;;;;;2.93;66.51;98733.69;6139480;22;101488;-80
2021/12/10 10:40:06;;;;;;;60.20;34.90;;;;;;;3.48;64.77;98721.69;6166324;22;100320;-81
2021/12/10 10:42:32;;;;;;;64.57;36.30;;;;;;;3.43;64.84;98730.50;6164035;22;97020;-80
2021/12/10 10:45:04;;;;;;;61.83;33.93;;;;;;;3.37;65.23;98722.03;6169765;22;96775;-79
2021/12/10 10:47:30;;;;;;;59.53;34.05;;;;;;;3.58;64.53;98722.28;6166181;22;101249;-79
2021/12/10 10:50:13;;;;;;;57.67;31.77;;;;;;;3.57;64.31;98723.16;6144488;22;99797;-80
2021/12/10 10:52:43;;;;;;;59.00;32.97;;;;;;;3.77;63.92;98725.13;6193047;22;97140;-80
2021/12/10 10:55:12;;;;;;;63.53;33.30;;;;;;;3.64;64.20;98727.25;6144751;22;97299;-80
2021/12/10 11:00:51;;;;;;;57.42;31.90;;;;;;;3.73;63.84;98707.97;6209759;22;99685;-80
2021/12/10 11:03:21;;;;;;;60.67;32.90;;;;;;;3.66;64.40;98701.25;6208849;22;96417;-80
2021/12/10 11:05:51;;;;;;;62.17;31.83;;;;;;;3.52;64.96;98710.34;6223977;22;96833;-78
2021/12/10 12:20:47;;;;;;;61.07;30.13;;;;;;;3.00;67.03;98665.22;6185284;22;99642;-85
2021/12/10 12:56:11;;;;;;;53.47;28.40;;;;;;;2.58;67.72;98700.97;6179422;22;99425;-81
2021/12/10 13:42:45;;;;;;;54.87;26.53;;;;;;;2.43;66.26;98726.41;6224522;22;98785;-80
2021/12/10 13:45:12;;;;;;;51.83;25.17;;;;;;;2.46;65.82;98718.53;6189015;22;99706;-81
2021/12/10 14:01:12;;;;;;;50.67;26.40;;;;;;;2.24;66.89;98712.22;6172976;22;98498;-82
2021/12/10 14:03:58;;;;;;;45.73;26.40;;;;;;;2.22;66.65;98720.03;6146504;22;99057;-80
2021/12/10 14:06:50;;;;;;;55.97;27.30;;;;;;;2.18;65.90;98721.03;6182725;22;99779;-81
2021/12/10 14:12:15;;;;;;;62.63;30.47;;;;;;;2.02;66.58;98717.94;6229218;22;96915;-82
2021/12/10 14:15:17;;;;;;;62.83;30.90;;;;;;;1.99;67.14;98720.63;6240589;22;96398;-83
2021/12/10 14:17:58;;;;;;;64.78;32.92;;;;;;;1.92;67.33;98719.06;6194936;22;96353;-82
2021/12/10 14:20:30;;;;;;;66.50;34.13;;;;;;;1.87;67.91;98723.50;6190662;22;99493;-83
2021/12/10 14:23:02;;;;;;;65.95;35.15;;;;;;;1.86;67.87;98720.94;6191158;22;95782;-82
2021/12/10 14:28:29;;;;;;;64.53;33.70;;;;;;;1.86;67.89;98726.13;6215701;22;98140;-83
2021/12/10 14:30:55;;;;;;;68.47;36.00;;;;;;;1.87;67.92;98717.50;6121231;22;99650;-80
2021/12/10 14:33:32;;;;;;;74.23;36.90;;;;;;;1.83;68.24;98721.88;6190538;22;96573;-79
2021/12/10 14:35:59;;;;;;;69.90;36.23;;;;;;;1.73;68.76;98725.56;6161107;22;97213;-81
2021/12/10 14:39:10;;;;;;;65.30;34.13;;;;;;;1.64;69.13;98718.03;6192198;22;101629;-80
2021/12/10 14:41:39;;;;;;;68.93;36.03;;;;;;;1.56;69.11;98719.03;6192926;22;100609;-81
2021/12/10 14:44:14;;;;;;;62.87;34.43;;;;;;;1.54;69.40;98723.44;6195557;22;96636;-81
2021/12/10 14:46:48;;;;;;;58.30;34.17;;;;;;;1.49;69.79;98722.66;6193350;22;96853;-81
2021/12/10 14:49:45;;;;;;;62.70;34.30;;;;;;;1.53;69.73;98720.84;6192054;22;98038;-80
2021/12/10 14:52:17;;;;;;;58.83;32.40;;;;;;;1.50;69.21;98716.59;6193498;22;99906;-83
2021/12/10 14:54:52;;;;;;;52.13;30.52;;;;;;;1.57;69.54;98712.13;6187156;22;96544;-82
2021/12/10 14:57:19;;;;;;;60.20;32.47;;;;;;;1.57;69.40;98715.59;6213276;22;97185;-83
2021/12/10 14:59:45;;;;;;;60.10;33.33;;;;;;;1.58;69.21;98722.47;6186781;22;100262;-82
2021/12/10 15:02:13;;;;;;;56.47;31.70;;;;;;;1.49;69.56;98719.25;6162459;22;99121;-82
2021/12/10 15:05:00;;;;;;;61.30;32.93;;;;;;;1.41;69.58;98711.66;6211469;22;96412;-82
2021/12/10 15:07:29;;;;;;;55.97;30.63;;;;;;;1.36;70.06;98729.00;6212897;22;96364;-82
2021/12/10 15:10:04;;;;;;;57.53;33.33;;;;;;;1.32;70.52;98717.88;6210959;22;96638;-82